Omaha, NE

6:14 PM CDT on March 22, 2017 (GMT -0500)
Millard Municipal | | Change Station

Elev 1050 ft 41.20 °N, 96.12 °W | Updated 19 minutes ago

Overcast
Overcast
51 °F
Feels Like 51 °F
N
18
Wind Variable Wind from SE
Gusts 23 mph

Today
High -- | Low -- °F
--% Chance of Precip.
Yesterday
High -- | Low -- °F
Precip. -- in
Pressure 30.20 in
Visibility 10.0 miles
Clouds Overcast 9000 ft
Dew Point 28 °F
Humidity 40%
Rainfall 0.00 in
Snow Depth Not available.
7:23 AM 7:39 PM
Waning Crescent, 28% visible
METAR KMLE 222255Z AUTO 13016G20KT 10SM OVC090 11/M02 A3020 RMK AO2 T01081025
Pressure 30.20 in
Visibility 10.0 miles
Clouds Overcast 9000 ft
Dew Point 28 °F
Humidity 40%
Rainfall 0.00 in
Snow Depth Not available.
7:23 AM 7:39 PM
Waning Crescent, 28% visible
METAR KMLE 222255Z AUTO 13016G20KT 10SM OVC090 11/M02 A3020 RMK AO2 T01081025

Get Severe Weather Alerts

Thanks for signing up!

Be on the lookout for a verification email in your inbox.

You'll start receiving the daily forecast at 8 AM.

×

10-Day Weather Forecast

Almanac

Astronomy

Mar. 22, 2017 Rise Set
Actual Time
Civil Twilight
Nautical Twilight
Astronomical Twilight
Moon
Length of Visible Light
Length of Day
Tomorrow will be .
, % of the Moon is Illuminated

Today's Extremes

State Highs State Lows

Community

WunderPhotos

Upload Photos

1,962,540 photos uploaded!

WunderBlog® & News

Nearby

Air Quality

  Air Quality AQ Index Pollutant
Not available.

Snow Depth

Station Depth Elevation

Earthquake Activity

City Distance Mag. Time & Date
Minimum magnitude displayed is 2.5.

Earthquake Activity

City Distance Mag. Time & Date
Minimum magnitude displayed is 2.5.

Coastal Water Temperatures

Place Temperature

Stations

Nearby Weather Stations

Station Location Temp. Windchill Dew Point Humidity Wind Precip. Elev Updated Type
                   

Watches & Warnings

There are currently no watches in effect.